Time;durP1;ratioP1;P1;durP2;ratioP2;P2;SDS_P1;SDS_P2;PMS_P1;PMS_P2;Temp;Humidity;BMP_temperature;BMP_pressure;BME280_temperature;BME280_humidity;BME280_pressure;Samples;Min_cycle;Max_cycle;Signal;HPM_P1;HPM_P2
2021/08/17 00:00:45;;;;;;;8.05;3.05;;;16.10;99.90;;;;;;2071432;28;20033;-68
2021/08/17 00:01:45;;;;;;;10.35;3.58;;;16.10;99.90;;;;;;2071042;28;20428;-68
2021/08/17 00:02:46;;;;;;;8.60;3.15;;;16.00;99.90;;;;;;2071181;28;20030;-68
2021/08/17 00:03:47;;;;;;;18.77;3.97;;;16.00;99.90;;;;;;2071404;28;20069;-69
2021/08/17 00:04:47;;;;;;;15.63;3.30;;;16.00;99.90;;;;;;2071662;28;20030;-69
2021/08/17 00:05:48;;;;;;;9.18;3.75;;;16.00;99.90;;;;;;2071469;28;20057;-68
2021/08/17 00:06:48;;;;;;;9.40;2.83;;;16.00;99.90;;;;;;2071589;28;20034;-68
2021/08/17 00:07:49;;;;;;;12.50;3.20;;;16.00;99.90;;;;;;2071191;28;20358;-68
2021/08/17 00:08:49;;;;;;;10.93;3.45;;;16.00;99.90;;;;;;2071619;28;20382;-68
2021/08/17 00:09:50;;;;;;;8.95;3.53;;;16.00;99.90;;;;;;2071271;28;20496;-68
2021/08/17 00:10:51;;;;;;;7.55;3.17;;;16.00;99.90;;;;;;2071635;28;20025;-68
2021/08/17 00:11:51;;;;;;;7.95;3.05;;;16.00;99.90;;;;;;2071175;28;20033;-68
2021/08/17 00:12:52;;;;;;;13.38;3.33;;;16.00;99.90;;;;;;2072008;28;20028;-68
2021/08/17 00:13:53;;;;;;;11.30;2.90;;;16.00;99.90;;;;;;2071129;28;20030;-68
2021/08/17 00:14:53;;;;;;;8.05;3.83;;;16.00;99.90;;;;;;2071620;28;20028;-68
2021/08/17 00:15:54;;;;;;;9.13;2.88;;;16.00;99.90;;;;;;2071271;28;20059;-68
2021/08/17 00:16:54;;;;;;;14.15;3.13;;;16.00;99.90;;;;;;2071833;28;20037;-69
2021/08/17 00:17:55;;;;;;;5.72;2.95;;;16.00;99.90;;;;;;2071279;28;20037;-68
2021/08/17 00:18:56;;;;;;;8.90;3.17;;;15.90;99.90;;;;;;2071252;28;20453;-68
2021/08/17 00:19:56;;;;;;;7.90;3.30;;;15.90;99.90;;;;;;2071238;28;20030;-68
2021/08/17 00:20:57;;;;;;;11.57;3.65;;;15.90;99.90;;;;;;2071466;28;20018;-68
2021/08/17 00:21:57;;;;;;;10.23;3.45;;;15.90;99.90;;;;;;2071204;28;20378;-68
2021/08/17 00:22:58;;;;;;;12.75;3.17;;;15.90;99.90;;;;;;2071097;28;20030;-68
2021/08/17 00:23:59;;;;;;;10.07;3.05;;;15.90;99.90;;;;;;2070863;28;20056;-68
2021/08/17 00:24:59;;;;;;;12.85;3.55;;;15.90;99.90;;;;;;2070812;28;20033;-68
2021/08/17 00:26:00;;;;;;;9.77;3.22;;;15.90;99.90;;;;;;2071479;28;20034;-68
2021/08/17 00:27:01;;;;;;;13.18;3.50;;;15.90;99.90;;;;;;2071147;28;20030;-68
2021/08/17 00:28:02;;;;;;;12.73;3.78;;;15.90;99.90;;;;;;2071220;28;20057;-68
2021/08/17 00:29:03;;;;;;;13.10;3.45;;;15.90;99.90;;;;;;2071270;28;20026;-68
2021/08/17 00:30:06;;;;;;;13.25;4.72;;;15.90;99.90;;;;;;2072569;28;20508;-68
2021/08/17 00:31:07;;;;;;;15.88;3.85;;;15.90;99.90;;;;;;2072848;28;20022;-69
2021/08/17 00:32:08;;;;;;;14.07;3.33;;;15.90;99.90;;;;;;2072771;28;20429;-68
2021/08/17 00:33:08;;;;;;;12.82;4.10;;;15.90;99.90;;;;;;2072554;28;20100;-68
2021/08/17 00:34:09;;;;;;;7.55;3.13;;;15.90;99.90;;;;;;2072989;28;20375;-68
2021/08/17 00:35:09;;;;;;;14.07;3.60;;;16.00;99.90;;;;;;2072804;28;20025;-68
2021/08/17 00:36:10;;;;;;;8.60;3.78;;;16.00;99.90;;;;;;2073346;28;20481;-68
2021/08/17 00:37:12;;;;;;;13.45;4.25;;;16.00;99.90;;;;;;2072813;28;20057;-68
2021/08/17 00:38:13;;;;;;;11.63;3.70;;;16.00;99.90;;;;;;2072935;28;20018;-68
2021/08/17 00:39:14;;;;;;;12.38;3.97;;;16.00;99.90;;;;;;2072679;28;20093;-68
2021/08/17 00:40:14;;;;;;;8.15;3.50;;;16.00;99.90;;;;;;2072991;28;20034;-68
2021/08/17 00:41:15;;;;;;;10.93;4.15;;;16.00;99.90;;;;;;2072630;28;20041;-68
2021/08/17 00:42:16;;;;;;;14.63;4.68;;;16.00;99.90;;;;;;2072777;28;20053;-68
2021/08/17 00:43:16;;;;;;;12.35;4.28;;;16.00;99.90;;;;;;2072357;28;20160;-68
2021/08/17 00:44:25;;;;;;;10.65;4.07;;;16.00;99.90;;;;;;2073080;28;20014;-68
2021/08/17 00:45:28;;;;;;;12.60;4.18;;;16.00;99.90;;;;;;2072749;28;20032;-68
2021/08/17 00:46:31;;;;;;;12.27;4.28;;;16.00;99.90;;;;;;2078919;28;20400;-68
2021/08/17 00:47:31;;;;;;;10.10;3.97;;;16.00;99.90;;;;;;2072723;28;20425;-68
2021/08/17 00:48:34;;;;;;;11.27;4.95;;;16.00;99.90;;;;;;2072721;28;20034;-68
2021/08/17 00:49:34;;;;;;;11.55;4.50;;;16.00;99.90;;;;;;2072933;28;20065;-69
2021/08/17 00:50:36;;;;;;;9.32;3.88;;;16.00;99.90;;;;;;2072439;28;20037;-68
2021/08/17 00:51:36;;;;;;;8.27;3.65;;;15.90;99.90;;;;;;2072813;28;20068;-68
2021/08/17 00:52:40;;;;;;;10.98;3.83;;;15.90;99.90;;;;;;2072740;28;20080;-68
2021/08/17 00:53:40;;;;;;;8.32;3.40;;;15.90;99.90;;;;;;2072874;28;20429;-68
2021/08/17 00:54:44;;;;;;;10.63;4.13;;;15.90;99.90;;;;;;2072380;28;20026;-68
2021/08/17 00:55:45;;;;;;;10.93;4.35;;;15.90;99.90;;;;;;2067557;28;20018;-68
2021/08/17 00:56:46;;;;;;;7.80;3.67;;;15.90;99.90;;;;;;2071861;28;20060;-68
2021/08/17 00:57:47;;;;;;;10.82;3.80;;;15.90;99.90;;;;;;2072677;28;20294;-68
2021/08/17 00:58:47;;;;;;;10.20;4.07;;;15.90;99.90;;;;;;2072826;28;20064;-68
2021/08/17 00:59:48;;;;;;;12.57;4.35;;;15.90;99.90;;;;;;2072696;28;20045;-68
2021/08/17 01:00:48;;;;;;;12.18;4.43;;;15.90;99.90;;;;;;2073090;28;20118;-68
2021/08/17 01:01:50;;;;;;;10.45;4.32;;;15.90;99.90;;;;;;2072980;28;20030;-68
2021/08/17 01:02:50;;;;;;;11.60;4.13;;;15.90;99.90;;;;;;2079184;28;20026;-69
2021/08/17 01:03:51;;;;;;;10.27;3.88;;;16.00;99.90;;;;;;2072817;28;20026;-68
2021/08/17 01:04:52;;;;;;;9.35;3.97;;;16.00;99.90;;;;;;2072488;28;20030;-68
2021/08/17 01:05:53;;;;;;;12.75;4.60;;;16.00;99.90;;;;;;2072682;28;20030;-68
2021/08/17 01:06:53;;;;;;;15.23;5.00;;;16.00;99.90;;;;;;2072759;28;20022;-69
2021/08/17 01:07:55;;;;;;;11.55;4.85;;;16.00;99.90;;;;;;2072574;28;20041;-68
2021/08/17 01:08:55;;;;;;;9.23;5.20;;;16.00;99.90;;;;;;2072824;28;20038;-68
2021/08/17 01:09:56;;;;;;;12.60;4.35;;;15.90;99.90;;;;;;2072634;28;20036;-68
2021/08/17 01:10:57;;;;;;;14.68;4.60;;;16.00;99.90;;;;;;2072527;28;20076;-68
2021/08/17 01:12:03;;;;;;;15.73;4.63;;;16.00;99.90;;;;;;2072475;28;20057;-68
2021/08/17 01:13:03;;;;;;;10.38;4.32;;;16.00;99.90;;;;;;2072082;28;20026;-68
2021/08/17 01:14:04;;;;;;;11.50;4.53;;;16.00;99.90;;;;;;2072475;28;20543;-68
2021/08/17 01:15:06;;;;;;;9.55;4.55;;;15.90;99.90;;;;;;2072818;28;20025;-68
2021/08/17 01:16:06;;;;;;;9.20;4.90;;;15.90;99.90;;;;;;2072567;28;20517;-68
2021/08/17 01:17:07;;;;;;;10.15;4.38;;;15.90;99.90;;;;;;2072620;28;20363;-68
2021/08/17 01:18:08;;;;;;;12.25;4.72;;;15.90;99.90;;;;;;2073666;28;20026;-68
2021/08/17 01:19:11;;;;;;;7.38;4.70;;;15.90;99.90;;;;;;2072686;28;20033;-68
2021/08/17 01:20:14;;;;;;;10.00;4.35;;;15.90;99.90;;;;;;2072912;28;20106;-68
2021/08/17 01:21:16;;;;;;;12.57;4.32;;;15.90;99.90;;;;;;2072605;28;20141;-68
2021/08/17 01:22:17;;;;;;;11.95;5.10;;;15.80;99.90;;;;;;2072551;28;20427;-69
2021/08/17 01:23:19;;;;;;;13.50;5.03;;;15.80;99.90;;;;;;2072242;28;20049;-68
2021/08/17 01:24:20;;;;;;;11.93;4.88;;;15.80;99.90;;;;;;2072694;28;20022;-68
2021/08/17 01:25:20;;;;;;;12.40;5.30;;;15.80;99.90;;;;;;2072649;28;20356;-68
2021/08/17 01:26:21;;;;;;;8.05;4.40;;;15.80;99.90;;;;;;2072711;28;20075;-68
2021/08/17 01:27:22;;;;;;;11.05;4.65;;;15.80;99.90;;;;;;2072444;28;20482;-68
2021/08/17 01:28:22;;;;;;;10.23;4.93;;;15.80;99.90;;;;;;2067209;28;20033;-68
2021/08/17 01:29:24;;;;;;;9.98;4.43;;;15.80;99.90;;;;;;2072268;28;20601;-68
2021/08/17 01:30:24;;;;;;;10.68;4.38;;;15.70;99.90;;;;;;2072281;28;20562;-68
2021/08/17 01:31:25;;;;;;;9.45;4.70;;;15.70;99.90;;;;;;2072430;28;20044;-68
2021/08/17 01:32:25;;;;;;;8.82;4.85;;;15.70;99.90;;;;;;2072244;28;20054;-68
2021/08/17 01:33:26;;;;;;;8.80;4.82;;;15.70;99.90;;;;;;2071842;28;20540;-68
2021/08/17 01:34:27;;;;;;;11.48;5.05;;;15.70;99.90;;;;;;2072496;28;20033;-68
2021/08/17 01:35:28;;;;;;;12.68;5.22;;;15.70;99.90;;;;;;2072564;28;20725;-68
2021/08/17 01:36:29;;;;;;;10.50;4.72;;;15.70;99.90;;;;;;2070669;28;20033;-68
2021/08/17 01:37:29;;;;;;;12.93;4.75;;;15.70;99.90;;;;;;2072556;28;20040;-68
2021/08/17 01:38:30;;;;;;;11.32;5.00;;;15.70;99.90;;;;;;2069057;28;20041;-68
2021/08/17 01:39:30;;;;;;;10.52;4.80;;;15.70;99.90;;;;;;2072706;28;20041;-69
2021/08/17 01:40:31;;;;;;;10.55;5.13;;;15.60;99.90;;;;;;2072236;28;20041;-68
2021/08/17 01:41:32;;;;;;;8.80;4.78;;;15.60;99.90;;;;;;2072475;28;20517;-68
2021/08/17 01:42:35;;;;;;;13.93;5.57;;;15.60;99.90;;;;;;2072190;28;20037;-69
2021/08/17 01:43:35;;;;;;;12.23;4.72;;;15.60;99.90;;;;;;2072313;28;20038;-68
2021/08/17 01:44:36;;;;;;;12.20;5.28;;;15.60;99.90;;;;;;2072487;28;20026;-68
2021/08/17 01:45:36;;;;;;;12.38;5.20;;;15.60;99.90;;;;;;2072691;28;20089;-68
2021/08/17 01:46:39;;;;;;;8.35;4.60;;;15.60;99.90;;;;;;2072587;28;20470;-68
2021/08/17 01:47:40;;;;;;;11.60;5.72;;;15.60;99.90;;;;;;2072343;28;20040;-68
2021/08/17 01:48:41;;;;;;;11.82;4.90;;;15.60;99.90;;;;;;2074574;28;20053;-68
2021/08/17 01:49:41;;;;;;;14.45;5.25;;;15.50;99.90;;;;;;2072461;28;20369;-68
2021/08/17 01:50:42;;;;;;;10.48;4.97;;;15.50;99.90;;;;;;2072525;28;20037;-68
2021/08/17 01:51:47;;;;;;;14.02;5.35;;;15.50;99.90;;;;;;2072355;28;20026;-68
2021/08/17 01:52:47;;;;;;;9.73;4.60;;;15.50;99.90;;;;;;2071758;28;20028;-68
2021/08/17 01:53:48;;;;;;;12.32;4.97;;;15.50;99.90;;;;;;2071694;28;20029;-68
2021/08/17 01:54:48;;;;;;;8.50;4.15;;;15.50;99.90;;;;;;2072109;28;20149;-68
2021/08/17 01:55:51;;;;;;;10.50;5.22;;;15.50;99.90;;;;;;2072164;28;20532;-68
2021/08/17 01:56:51;;;;;;;10.55;5.40;;;15.50;99.90;;;;;;2069829;28;20401;-68
2021/08/17 01:57:52;;;;;;;11.70;4.75;;;15.50;99.90;;;;;;2072386;28;20022;-68
2021/08/17 01:58:52;;;;;;;13.68;5.20;;;15.40;99.90;;;;;;2072415;28;20022;-68
2021/08/17 01:59:53;;;;;;;9.68;4.72;;;15.40;99.90;;;;;;2072103;28;20033;-68
2021/08/17 02:00:53;;;;;;;10.77;4.68;;;15.40;99.90;;;;;;2073104;28;20644;-68
2021/08/17 02:01:55;;;;;;;10.98;5.07;;;15.40;99.90;;;;;;2076959;28;20032;-68
2021/08/17 02:02:56;;;;;;;10.20;4.45;;;15.40;99.90;;;;;;2073450;28;20068;-69
2021/08/17 02:03:57;;;;;;;8.13;4.40;;;15.40;99.90;;;;;;2073390;28;20517;-68
2021/08/17 02:04:57;;;;;;;10.48;4.80;;;15.40;99.90;;;;;;2073836;28;20095;-68
2021/08/17 02:05:58;;;;;;;10.35;4.78;;;15.40;99.90;;;;;;2073566;28;20044;-68
2021/08/17 02:06:58;;;;;;;10.73;4.55;;;15.40;99.90;;;;;;2073860;28;20156;-68
2021/08/17 02:08:03;;;;;;;9.80;5.30;;;15.40;99.90;;;;;;2073572;28;20037;-68
2021/08/17 02:09:03;;;;;;;8.70;4.90;;;15.40;99.90;;;;;;2073678;28;20105;-68
2021/08/17 02:10:05;;;;;;;11.60;5.35;;;15.40;99.90;;;;;;2073521;28;20705;-68
2021/08/17 02:11:05;;;;;;;11.52;5.03;;;15.40;99.90;;;;;;2073825;28;20037;-68
2021/08/17 02:12:06;;;;;;;15.18;5.80;;;15.40;99.90;;;;;;2073465;28;20018;-68
2021/08/17 02:13:07;;;;;;;11.20;4.55;;;15.30;99.90;;;;;;2073473;28;20030;-69
2021/08/17 02:14:08;;;;;;;8.63;4.75;;;15.40;99.90;;;;;;2073391;28;20066;-68
2021/08/17 02:15:09;;;;;;;12.80;5.05;;;15.40;99.90;;;;;;2073694;28;20052;-68
2021/08/17 02:16:09;;;;;;;12.40;5.75;;;15.40;99.90;;;;;;2074669;28;20112;-68
2021/08/17 02:17:10;;;;;;;8.55;5.10;;;15.40;99.90;;;;;;2073621;28;20022;-68
2021/08/17 02:18:11;;;;;;;13.15;6.22;;;15.40;99.90;;;;;;2073466;28;20033;-68
2021/08/17 02:19:12;;;;;;;8.70;5.38;;;15.40;99.90;;;;;;2073527;28;20456;-68
2021/08/17 02:20:13;;;;;;;13.50;6.60;;;15.30;99.90;;;;;;2073604;28;20481;-68
2021/08/17 02:21:14;;;;;;;11.30;6.28;;;15.30;99.90;;;;;;2073625;28;20466;-68
2021/08/17 02:22:14;;;;;;;10.98;5.80;;;15.30;99.90;;;;;;2073691;28;20108;-68
2021/08/17 02:23:15;;;;;;;11.82;6.35;;;15.30;99.90;;;;;;2076796;28;20355;-68
2021/08/17 02:24:16;;;;;;;9.52;5.80;;;15.30;99.90;;;;;;2073414;28;20030;-68
2021/08/17 02:25:16;;;;;;;11.32;5.85;;;15.30;99.90;;;;;;2073702;28;20044;-68
2021/08/17 02:26:17;;;;;;;11.55;6.18;;;15.30;99.90;;;;;;2073469;28;20018;-68
2021/08/17 02:27:17;;;;;;;11.15;6.35;;;15.30;99.90;;;;;;2073520;28;20041;-68
2021/08/17 02:28:19;;;;;;;8.13;6.00;;;15.30;99.90;;;;;;2073427;28;20057;-68
2021/08/17 02:29:20;;;;;;;12.65;6.45;;;15.30;99.90;;;;;;2073595;28;20029;-68
2021/08/17 02:30:21;;;;;;;14.00;6.93;;;15.30;99.90;;;;;;2073359;28;20049;-68
2021/08/17 02:31:21;;;;;;;11.63;6.63;;;15.30;99.90;;;;;;2073674;28;20009;-68
2021/08/17 02:32:22;;;;;;;11.68;6.00;;;15.30;99.90;;;;;;2073266;28;20056;-68
2021/08/17 02:33:22;;;;;;;13.82;6.35;;;15.30;99.90;;;;;;2073212;28;20042;-68
2021/08/17 02:34:23;;;;;;;11.70;5.90;;;15.30;99.90;;;;;;2073384;28;20466;-68
2021/08/17 02:35:23;;;;;;;13.02;7.07;;;15.30;99.90;;;;;;2073372;28;20104;-68
2021/08/17 02:36:24;;;;;;;13.93;7.22;;;15.30;99.90;;;;;;2073478;28;20076;-68
2021/08/17 02:37:25;;;;;;;13.60;6.75;;;15.30;99.90;;;;;;2073414;28;20088;-68
2021/08/17 02:38:25;;;;;;;13.85;7.03;;;15.30;99.90;;;;;;2073452;28;20113;-68
2021/08/17 02:39:26;;;;;;;13.70;7.47;;;15.30;99.90;;;;;;2073231;28;20040;-68
2021/08/17 02:40:26;;;;;;;16.55;7.75;;;15.30;99.90;;;;;;2073233;28;20026;-68
2021/08/17 02:41:27;;;;;;;14.32;7.65;;;15.30;99.90;;;;;;2073108;28;20038;-68
2021/08/17 02:42:28;;;;;;;12.80;7.55;;;15.30;99.90;;;;;;2073638;28;20053;-68
2021/08/17 02:43:28;;;;;;;12.82;7.50;;;15.30;99.90;;;;;;2072777;28;20117;-68
2021/08/17 02:44:29;;;;;;;13.98;8.38;;;15.20;99.90;;;;;;2073376;28;20025;-68
2021/08/17 02:45:29;;;;;;;15.35;8.25;;;15.20;99.90;;;;;;2072547;28;20589;-68
2021/08/17 02:46:30;;;;;;;17.33;8.48;;;15.20;99.90;;;;;;2072959;28;20025;-68
2021/08/17 02:47:31;;;;;;;15.13;8.82;;;15.20;99.90;;;;;;2073173;28;20026;-68
2021/08/17 02:48:31;;;;;;;13.48;7.60;;;15.20;99.90;;;;;;2073485;28;20030;-68
2021/08/17 02:49:33;;;;;;;17.65;9.00;;;15.20;99.90;;;;;;2073049;28;20057;-68
2021/08/17 02:50:35;;;;;;;18.10;9.75;;;15.20;99.90;;;;;;2075691;28;20025;-68
2021/08/17 02:51:36;;;;;;;15.15;7.70;;;15.20;99.90;;;;;;2079060;28;20022;-68
2021/08/17 02:52:36;;;;;;;15.82;9.32;;;15.20;99.90;;;;;;2072997;28;20030;-68
2021/08/17 02:53:37;;;;;;;18.77;9.30;;;15.20;99.90;;;;;;2072694;28;20058;-68
2021/08/17 02:54:39;;;;;;;15.00;8.43;;;15.20;99.90;;;;;;2073269;28;20481;-68
2021/08/17 02:55:39;;;;;;;16.27;9.38;;;15.20;99.90;;;;;;2073208;28;20022;-68
2021/08/17 02:56:40;;;;;;;15.55;10.38;;;15.10;99.90;;;;;;2073214;28;20033;-68
2021/08/17 02:57:47;;;;;;;18.15;10.57;;;15.20;99.90;;;;;;2073324;28;20069;-68
2021/08/17 02:58:48;;;;;;;14.98;8.13;;;15.20;99.90;;;;;;2073369;28;20716;-68
2021/08/17 02:59:48;;;;;;;18.33;10.02;;;15.20;99.90;;;;;;2072967;28;20491;-68
2021/08/17 03:00:49;;;;;;;18.10;11.25;;;15.20;99.90;;;;;;2073347;28;20030;-68
2021/08/17 03:01:49;;;;;;;20.60;11.18;;;15.20;99.90;;;;;;2072219;28;20044;-68
2021/08/17 03:02:50;;;;;;;17.70;10.27;;;15.20;99.90;;;;;;2071893;28;20034;-69
2021/08/17 03:03:50;;;;;;;23.02;11.35;;;15.10;99.90;;;;;;2072208;28;20513;-68
2021/08/17 03:04:51;;;;;;;21.35;11.98;;;15.10;99.90;;;;;;2074495;28;20087;-68
2021/08/17 03:05:52;;;;;;;17.52;11.60;;;15.10;99.90;;;;;;2072214;28;20029;-68
2021/08/17 03:06:52;;;;;;;21.83;12.23;;;15.10;99.90;;;;;;2072503;28;20529;-68
2021/08/17 03:08:00;;;;;;;20.83;12.98;;;15.10;99.90;;;;;;2072207;28;20425;-68
2021/08/17 03:09:01;;;;;;;21.45;13.00;;;15.10;99.90;;;;;;2072628;28;20049;-68
2021/08/17 03:10:02;;;;;;;23.85;13.32;;;15.10;99.90;;;;;;2072041;28;20022;-68
2021/08/17 03:11:05;;;;;;;23.63;12.32;;;15.00;99.90;;;;;;2071232;28;20382;-68
2021/08/17 03:12:06;;;;;;;24.80;12.93;;;15.10;99.90;;;;;;2071648;28;20030;-68
2021/08/17 03:13:08;;;;;;;21.30;10.88;;;15.10;99.90;;;;;;2071391;28;20072;-68
2021/08/17 03:14:08;;;;;;;22.02;13.10;;;15.00;99.90;;;;;;2071743;28;20494;-68
2021/08/17 03:15:09;;;;;;;18.02;11.75;;;15.00;99.90;;;;;;2072150;28;20737;-68
2021/08/17 03:16:10;;;;;;;20.67;13.05;;;15.00;99.90;;;;;;2071049;28;20580;-68
2021/08/17 03:17:11;;;;;;;23.02;13.00;;;15.10;99.90;;;;;;2071358;28;20061;-68
2021/08/17 03:18:11;;;;;;;21.92;12.73;;;15.10;99.90;;;;;;2074986;28;20040;-68
2021/08/17 03:19:12;;;;;;;21.50;12.63;;;15.00;99.90;;;;;;2077929;28;20477;-68
2021/08/17 03:20:14;;;;;;;22.55;13.75;;;15.10;99.90;;;;;;2071938;28;20528;-68
2021/08/17 03:21:15;;;;;;;24.00;13.90;;;15.00;99.90;;;;;;2071938;28;20018;-68
2021/08/17 03:22:15;;;;;;;25.42;15.20;;;15.10;99.90;;;;;;2071551;28;20026;-68
2021/08/17 03:23:17;;;;;;;25.45;13.88;;;15.00;99.90;;;;;;2071125;28;20053;-68
2021/08/17 03:24:17;;;;;;;20.48;13.20;;;15.00;99.90;;;;;;2071977;28;20076;-68
2021/08/17 03:25:18;;;;;;;24.80;14.98;;;15.00;99.90;;;;;;2071674;28;20080;-68
2021/08/17 03:26:18;;;;;;;24.65;13.95;;;15.00;99.90;;;;;;2072103;28;20497;-68
2021/08/17 03:27:19;;;;;;;25.85;15.32;;;15.00;99.90;;;;;;2071568;28;20517;-68
2021/08/17 03:28:19;;;;;;;21.67;13.65;;;15.00;99.90;;;;;;2071250;28;20153;-68
2021/08/17 03:29:20;;;;;;;26.65;15.00;;;15.00;99.90;;;;;;2071591;28;20026;-68
2021/08/17 03:30:22;;;;;;;25.20;14.02;;;15.00;99.90;;;;;;2071477;28;20022;-68
2021/08/17 03:31:22;;;;;;;27.23;16.42;;;15.00;99.90;;;;;;2071607;28;20748;-68
2021/08/17 03:32:24;;;;;;;27.08;15.80;;;15.00;99.90;;;;;;2072092;28;20049;-68
2021/08/17 03:33:25;;;;;;;29.23;16.88;;;15.00;99.90;;;;;;2071353;28;20206;-68
2021/08/17 03:34:25;;;;;;;26.05;15.85;;;15.00;99.90;;;;;;2071906;28;20038;-68
2021/08/17 03:35:26;;;;;;;26.20;15.25;;;15.00;99.90;;;;;;2071622;28;20036;-68
2021/08/17 03:36:26;;;;;;;24.50;15.25;;;15.00;99.90;;;;;;2070975;28;20477;-68
2021/08/17 03:37:27;;;;;;;27.75;17.85;;;15.00;99.90;;;;;;2071538;28;20500;-68
2021/08/17 03:38:28;;;;;;;24.90;14.93;;;15.00;99.90;;;;;;2071900;28;20088;-68
2021/08/17 03:39:28;;;;;;;30.58;17.63;;;15.00;99.90;;;;;;2071741;28;20037;-68
2021/08/17 03:40:29;;;;;;;30.55;17.40;;;15.00;99.90;;;;;;2071386;28;20041;-68
2021/08/17 03:41:29;;;;;;;30.45;16.63;;;15.00;99.90;;;;;;2071479;28;20030;-68
2021/08/17 03:42:30;;;;;;;27.38;17.23;;;15.00;99.90;;;;;;2071899;28;20029;-68
2021/08/17 03:43:31;;;;;;;31.30;18.10;;;15.00;99.90;;;;;;2071014;28;20038;-68
2021/08/17 03:44:32;;;;;;;30.90;18.05;;;14.90;99.90;;;;;;2071945;28;20100;-68
2021/08/17 03:45:33;;;;;;;28.92;17.70;;;15.00;99.90;;;;;;2073667;28;20026;-68
2021/08/17 03:46:33;;;;;;;32.80;18.83;;;14.90;99.90;;;;;;2079761;28;20412;-68
2021/08/17 03:47:34;;;;;;;32.72;17.48;;;15.00;99.90;;;;;;2071603;28;20028;-68
2021/08/17 03:48:34;;;;;;;27.08;17.75;;;14.90;99.90;;;;;;2071826;28;20148;-68
2021/08/17 03:49:35;;;;;;;26.40;15.60;;;15.00;99.90;;;;;;2071718;28;20113;-68
2021/08/17 03:50:36;;;;;;;29.30;17.55;;;15.00;99.90;;;;;;2071825;28;20489;-68
2021/08/17 03:51:36;;;;;;;31.17;17.75;;;15.00;99.90;;;;;;2069229;28;20114;-68
2021/08/17 03:52:37;;;;;;;28.85;18.08;;;15.00;99.90;;;;;;2063230;28;20038;-68
2021/08/17 03:53:38;;;;;;;32.13;18.95;;;14.90;99.90;;;;;;2068948;28;20074;-68
2021/08/17 03:54:38;;;;;;;30.85;18.52;;;15.00;99.90;;;;;;2071463;28;20097;-68
2021/08/17 03:55:39;;;;;;;29.50;18.77;;;14.90;99.90;;;;;;2071602;28;20029;-68
2021/08/17 03:56:39;;;;;;;30.52;20.27;;;14.90;99.90;;;;;;2071678;28;20410;-68
2021/08/17 03:57:40;;;;;;;32.63;17.88;;;14.90;99.90;;;;;;2071964;28;20436;-68
2021/08/17 03:58:41;;;;;;;27.98;17.45;;;14.90;99.90;;;;;;2071371;28;20030;-68
2021/08/17 03:59:42;;;;;;;30.60;19.25;;;14.90;99.90;;;;;;2074507;28;20036;-68
2021/08/17 04:00:42;;;;;;;27.15;17.70;;;14.90;99.90;;;;;;2071396;28;20042;-68
2021/08/17 04:01:43;;;;;;;31.80;19.40;;;14.90;99.90;;;;;;2071730;28;20498;-68
2021/08/17 04:02:43;;;;;;;33.97;19.80;;;14.90;99.90;;;;;;2070864;28;20124;-68
2021/08/17 04:03:44;;;;;;;33.53;19.67;;;14.90;99.90;;;;;;2071871;28;20057;-68
2021/08/17 04:04:45;;;;;;;38.63;21.70;;;14.90;99.90;;;;;;2071569;28;20026;-68
2021/08/17 04:05:46;;;;;;;36.97;20.75;;;14.90;99.90;;;;;;2071657;28;20029;-68
2021/08/17 04:06:46;;;;;;;35.53;20.40;;;14.90;99.90;;;;;;2071426;28;20101;-68
2021/08/17 04:07:47;;;;;;;33.50;19.95;;;14.90;99.90;;;;;;2071249;28;20445;-68
2021/08/17 04:08:48;;;;;;;37.70;22.25;;;14.90;99.90;;;;;;2062710;28;20029;-68
2021/08/17 04:09:49;;;;;;;35.42;20.90;;;14.90;99.90;;;;;;2068095;28;20026;-68
2021/08/17 04:10:50;;;;;;;31.52;20.15;;;14.90;99.90;;;;;;2071075;28;20021;-68
2021/08/17 04:11:51;;;;;;;33.25;21.08;;;14.90;99.90;;;;;;2069494;28;20026;-68
2021/08/17 04:12:51;;;;;;;40.08;21.50;;;14.90;99.90;;;;;;2071716;28;20036;-68
2021/08/17 04:13:52;;;;;;;38.17;21.15;;;14.90;99.90;;;;;;2079924;28;20381;-68
2021/08/17 04:14:52;;;;;;;36.55;21.70;;;14.90;99.90;;;;;;2072987;28;20029;-68
2021/08/17 04:15:53;;;;;;;35.67;22.33;;;14.90;99.90;;;;;;2071181;28;20030;-68
2021/08/17 04:16:56;;;;;;;37.85;22.08;;;14.90;99.90;;;;;;2071910;28;20062;-68
2021/08/17 04:17:56;;;;;;;36.50;21.38;;;14.90;99.90;;;;;;2070906;28;20021;-68
2021/08/17 04:18:57;;;;;;;37.10;19.98;;;14.90;99.90;;;;;;2071609;28;20517;-68
2021/08/17 04:19:58;;;;;;;36.17;22.63;;;14.90;99.90;;;;;;2077920;28;20032;-68
2021/08/17 04:20:58;;;;;;;41.53;21.98;;;14.90;99.90;;;;;;2075594;28;20045;-68
2021/08/17 04:21:59;;;;;;;32.60;19.08;;;14.90;99.90;;;;;;2071328;28;20084;-68
2021/08/17 04:22:59;;;;;;;39.03;22.40;;;14.90;99.90;;;;;;2071003;28;20087;-68
2021/08/17 04:24:00;;;;;;;38.70;22.40;;;14.90;99.90;;;;;;2071799;28;20088;-68
2021/08/17 04:25:01;;;;;;;43.65;23.02;;;14.90;99.90;;;;;;2071784;28;20109;-68
2021/08/17 04:26:02;;;;;;;44.63;22.77;;;14.90;99.90;;;;;;2071343;28;20037;-68
2021/08/17 04:27:04;;;;;;;43.38;22.27;;;14.90;99.90;;;;;;2074891;28;20093;-68
2021/08/17 04:28:04;;;;;;;31.52;21.20;;;15.00;99.90;;;;;;2071790;28;20170;-68
2021/08/17 04:29:05;;;;;;;35.50;20.25;;;14.90;99.90;;;;;;2071573;28;20030;-69
2021/08/17 04:30:06;;;;;;;34.53;22.10;;;14.90;99.90;;;;;;2071434;28;20022;-68
2021/08/17 04:31:07;;;;;;;39.40;22.20;;;14.90;99.90;;;;;;2071494;28;20152;-68
2021/08/17 04:32:07;;;;;;;35.83;21.80;;;14.90;99.90;;;;;;2071217;28;20022;-68
2021/08/17 04:33:08;;;;;;;41.13;23.58;;;15.00;99.90;;;;;;2071139;28;20026;-68
2021/08/17 04:34:09;;;;;;;37.47;23.17;;;15.00;99.90;;;;;;2071472;28;20040;-68
2021/08/17 04:35:09;;;;;;;33.60;19.15;;;15.00;99.90;;;;;;2071634;28;20481;-69
2021/08/17 04:36:10;;;;;;;39.97;23.20;;;14.90;99.90;;;;;;2071294;28;20053;-69
2021/08/17 04:37:11;;;;;;;39.78;23.00;;;15.00;99.90;;;;;;2071535;28;20034;-68
2021/08/17 04:38:12;;;;;;;37.55;21.95;;;15.00;99.90;;;;;;2071264;28;20056;-68
2021/08/17 04:39:12;;;;;;;40.50;22.17;;;15.00;99.90;;;;;;2072426;28;20097;-68
2021/08/17 04:40:13;;;;;;;37.25;22.05;;;15.00;99.90;;;;;;2071317;28;20037;-69
2021/08/17 04:41:14;;;;;;;41.78;23.83;;;15.00;99.90;;;;;;2071493;28;20100;-68
2021/08/17 04:42:14;;;;;;;35.88;22.65;;;15.00;99.90;;;;;;2071255;28;20026;-68
2021/08/17 04:43:15;;;;;;;40.47;23.58;;;15.00;99.90;;;;;;2070694;28;20100;-68
2021/08/17 04:44:15;;;;;;;44.95;25.08;;;15.00;99.90;;;;;;2071357;28;20018;-68
2021/08/17 04:45:17;;;;;;;42.08;23.40;;;15.00;99.90;;;;;;2071564;28;20033;-69
2021/08/17 04:46:18;;;;;;;34.92;21.02;;;15.00;99.90;;;;;;2071758;28;20921;-69
2021/08/17 04:47:18;;;;;;;36.83;23.55;;;15.00;99.90;;;;;;2070779;28;20401;-68
2021/08/17 04:48:19;;;;;;;37.28;23.23;;;15.00;99.90;;;;;;2070757;28;20098;-68
2021/08/17 04:49:20;;;;;;;41.38;23.52;;;15.00;99.90;;;;;;2071282;28;20033;-68
2021/08/17 04:50:22;;;;;;;46.50;24.83;;;15.00;99.90;;;;;;2071249;28;20022;-68
2021/08/17 04:51:23;;;;;;;44.40;25.60;;;15.00;99.90;;;;;;2071328;28;20084;-68
2021/08/17 04:52:24;;;;;;;37.58;22.45;;;15.00;99.90;;;;;;2072177;28;20026;-68
2021/08/17 04:53:26;;;;;;;42.80;24.63;;;15.00;99.90;;;;;;2075732;28;20033;-68
2021/08/17 04:54:27;;;;;;;41.35;24.15;;;15.00;99.90;;;;;;2071694;28;20041;-68
2021/08/17 04:55:28;;;;;;;47.20;23.90;;;15.00;99.90;;;;;;2071392;28;20064;-68
2021/08/17 04:56:28;;;;;;;41.13;23.90;;;15.00;99.90;;;;;;2071261;28;20068;-68
2021/08/17 04:57:29;;;;;;;39.17;23.75;;;15.00;99.90;;;;;;2071440;28;20022;-68
2021/08/17 04:58:29;;;;;;;37.65;22.65;;;15.00;99.90;;;;;;2071435;28;20065;-68
2021/08/17 04:59:30;;;;;;;34.22;21.45;;;15.00;99.90;;;;;;2071646;28;20036;-68
2021/08/17 05:00:31;;;;;;;36.97;23.58;;;15.10;99.90;;;;;;2071300;28;20057;-69
2021/08/17 05:01:32;;;;;;;37.88;23.60;;;15.10;99.90;;;;;;2071462;28;20366;-68
2021/08/17 05:02:32;;;;;;;43.45;26.27;;;15.10;99.90;;;;;;2071259;28;20022;-69
2021/08/17 05:03:33;;;;;;;43.63;25.48;;;15.10;99.90;;;;;;2071076;28;20040;-68
2021/08/17 05:04:33;;;;;;;42.88;24.25;;;15.10;99.90;;;;;;2071145;28;20034;-68
2021/08/17 05:05:34;;;;;;;41.25;25.40;;;15.10;99.90;;;;;;2071306;28;20061;-68
2021/08/17 05:06:35;;;;;;;45.67;25.05;;;15.10;99.90;;;;;;2075386;28;20025;-68
2021/08/17 05:07:40;;;;;;;40.63;23.13;;;15.20;99.90;;;;;;2079213;28;20370;-68
2021/08/17 05:08:40;;;;;;;38.40;23.42;;;15.20;99.90;;;;;;2071484;28;20033;-68
2021/08/17 05:09:41;;;;;;;41.17;24.75;;;15.20;99.90;;;;;;2071705;28;20030;-68
2021/08/17 05:10:41;;;;;;;46.30;27.23;;;15.20;99.90;;;;;;2071082;28;20060;-68
2021/08/17 05:11:42;;;;;;;40.97;24.90;;;15.20;99.90;;;;;;2070839;28;20505;-68